createdAt,value
2023-04-22T00:00:19.102Z,99454.91
2023-04-22T00:02:47.204Z,99462.84
2023-04-22T00:05:17.198Z,99468.53
2023-04-22T00:07:47.945Z,99461.19
2023-04-22T00:10:15.478Z,99468.28
2023-04-22T00:12:42.925Z,99462.47
2023-04-22T00:15:10.833Z,99464.16
2023-04-22T00:17:38.295Z,99464.16
2023-04-22T00:20:07.649Z,99464.16
2023-04-22T00:22:35.417Z,99458.72
2023-04-22T00:25:02.832Z,99465.56
2023-04-22T00:27:30.353Z,99459.53
2023-04-22T00:29:58.001Z,99459.53
2023-04-22T00:32:26.272Z,99462.25
2023-04-22T00:34:54.232Z,99464.16
2023-04-22T00:37:21.929Z,99473.16
2023-04-22T00:39:49.340Z,99466.87
2023-04-22T00:42:16.842Z,99460.37
2023-04-22T00:44:44.799Z,99461.44
2023-04-22T00:47:12.696Z,99458.91
2023-04-22T00:49:40.542Z,99464.38
2023-04-22T00:52:08.405Z,99457.28
2023-04-22T00:54:36.462Z,99458.09
2023-04-22T00:57:04.059Z,99462.47
2023-04-22T00:59:31.757Z,99449.09
2023-04-22T01:01:59.363Z,99454.31
2023-04-22T01:04:26.829Z,99455.38
2023-04-22T01:06:54.830Z,99452.66
2023-04-22T01:09:22.248Z,99460.00
2023-04-22T01:11:49.706Z,99457.50
2023-04-22T01:14:17.497Z,99461.88
2023-04-22T01:16:45.066Z,99464.59
2023-04-22T01:19:12.459Z,99459.16
2023-04-22T01:21:40.905Z,99466.25
2023-04-22T01:24:08.476Z,99470.88
2023-04-22T01:26:36.559Z,99468.16
2023-04-22T01:29:04.997Z,99468.41
2023-04-22T01:31:32.460Z,99474.91
2023-04-22T01:33:59.978Z,99461.50
2023-04-22T01:36:27.847Z,99472.41
2023-04-22T01:38:55.505Z,99471.31
2023-04-22T01:41:22.929Z,99475.13
2023-04-22T01:43:51.467Z,99472.41
2023-04-22T01:46:18.893Z,99477.84
2023-04-22T01:48:52.632Z,99476.19
2023-04-22T01:51:22.018Z,99476.19
2023-04-22T01:53:49.536Z,99473.47
2023-04-22T01:56:17.090Z,99474.53
2023-04-22T01:58:44.787Z,99473.47
2023-04-22T02:01:13.036Z,99469.91
2023-04-22T02:03:41.115Z,99468.03
2023-04-22T02:06:08.585Z,99461.75
2023-04-22T02:08:36.463Z,99471.56
2023-04-22T02:11:06.638Z,99461.50
2023-04-22T02:13:37.840Z,99463.41
2023-04-22T02:16:05.940Z,99465.88
2023-04-22T02:18:33.882Z,99465.06
2023-04-22T02:21:01.309Z,99467.56
2023-04-22T02:23:28.926Z,99462.13
2023-04-22T02:25:57.003Z,99457.72
2023-04-22T02:28:24.493Z,99461.50
2023-04-22T02:30:53.178Z,99464.22
2023-04-22T02:33:21.881Z,99460.69
2023-04-22T02:35:49.331Z,99465.31
2023-04-22T02:38:17.042Z,99461.50
2023-04-22T02:40:44.723Z,99461.75
2023-04-22T02:43:12.850Z,99464.47
2023-04-22T02:45:40.988Z,99460.09
2023-04-22T02:48:08.816Z,99461.13
2023-04-22T02:50:36.623Z,99460.09
2023-04-22T02:53:04.170Z,99460.09
2023-04-22T02:55:31.957Z,99461.13
2023-04-22T02:57:59.394Z,99456.56
2023-04-22T03:00:26.849Z,99459.28
2023-04-22T03:02:54.758Z,99455.69
2023-04-22T03:05:22.495Z,99456.56
2023-04-22T03:07:50.659Z,99461.75
2023-04-22T03:10:18.454Z,99462.81
2023-04-22T03:12:45.917Z,99461.13
2023-04-22T03:15:13.858Z,99459.28
2023-04-22T03:17:41.531Z,99468.25
2023-04-22T03:20:10.093Z,99462.00
2023-04-22T03:22:37.489Z,99467.44
2023-04-22T03:25:06.431Z,99462.81
2023-04-22T03:27:34.055Z,99470.16
2023-04-22T03:30:01.515Z,99473.72
2023-04-22T03:32:31.129Z,99469.09
2023-04-22T03:34:59.524Z,99474.53
2023-04-22T03:37:27.980Z,99478.31
2023-04-22T03:39:55.830Z,99481.25
2023-04-22T03:42:23.278Z,99475.81
2023-04-22T03:44:50.714Z,99474.16
2023-04-22T03:47:19.816Z,99478.78
2023-04-22T03:49:47.851Z,99476.06
2023-04-22T03:52:15.478Z,99483.37
2023-04-22T03:54:43.725Z,99480.66
2023-04-22T03:57:11.206Z,99474.41
2023-04-22T03:59:39.390Z,99481.72
2023-04-22T04:02:08.957Z,99479.84
2023-04-22T04:04:37.225Z,99480.88
2023-04-22T04:07:05.031Z,99480.66
2023-04-22T04:09:32.498Z,99481.72
2023-04-22T04:12:00.337Z,99481.72
2023-04-22T04:14:28.293Z,99483.59
2023-04-22T04:16:55.804Z,99485.50
2023-04-22T04:19:24.190Z,99487.38
2023-04-22T04:21:51.709Z,99490.09
2023-04-22T04:24:19.464Z,99486.31
2023-04-22T04:26:48.884Z,99490.09
2023-04-22T04:29:16.539Z,99490.94
2023-04-22T04:31:46.122Z,99496.63
2023-04-22T04:34:14.019Z,99501.00
2023-04-22T04:36:41.526Z,99499.09
2023-04-22T04:39:09.703Z,99500.41
2023-04-22T04:41:38.702Z,99498.28
2023-04-22T04:44:07.468Z,99506.44
2023-04-22T04:46:37.716Z,99509.16
2023-04-22T04:49:07.118Z,99512.69
2023-04-22T04:51:35.853Z,99517.09
2023-04-22T04:54:03.322Z,99514.38
2023-04-22T04:56:31.779Z,99512.50
2023-04-22T04:58:59.400Z,99514.38
2023-04-22T05:01:27.218Z,99516.25
2023-04-22T05:03:57.005Z,99521.69
2023-04-22T05:06:24.561Z,99517.94
2023-04-22T05:08:52.333Z,99525.03
2023-04-22T05:11:20.106Z,99523.38
2023-04-22T05:13:49.989Z,99526.91
2023-04-22T05:16:19.107Z,99522.31
2023-04-22T05:18:47.020Z,99527.75
2023-04-22T05:21:16.041Z,99529.63
2023-04-22T05:23:43.694Z,99521.47
2023-04-22T05:26:30.292Z,99523.38
2023-04-22T05:28:57.819Z,99524.78
2023-04-22T05:31:25.840Z,99519.59
2023-04-22T05:33:53.339Z,99517.69
2023-04-22T05:36:21.214Z,99522.06
2023-04-22T05:38:49.029Z,99520.16
2023-04-22T05:41:16.881Z,99522.88
2023-04-22T05:43:46.890Z,99521.84
2023-04-22T05:46:15.028Z,99527.31
2023-04-22T05:48:43.130Z,99526.44
2023-04-22T05:51:10.922Z,99528.13
2023-04-22T05:53:38.596Z,99531.66
2023-04-22T05:56:06.226Z,99535.47
2023-04-22T05:58:33.920Z,99532.75
2023-04-22T06:01:01.837Z,99532.75
2023-04-22T06:03:30.483Z,99535.22
2023-04-22T06:05:58.261Z,99531.66
2023-04-22T06:08:25.805Z,99538.78
2023-04-22T06:10:53.537Z,99536.28
2023-04-22T06:13:21.307Z,99539.84
2023-04-22T06:15:48.871Z,99540.66
2023-04-22T06:18:16.590Z,99544.44
2023-04-22T06:20:44.066Z,99538.78
2023-04-22T06:23:12.739Z,99540.44
2023-04-22T06:25:40.436Z,99553.66
2023-04-22T06:28:07.865Z,99544.66
2023-04-22T06:30:35.527Z,99543.84
2023-04-22T06:33:03.464Z,99549.50
2023-04-22T06:35:31.469Z,99558.50
2023-04-22T06:37:58.848Z,99554.13
2023-04-22T06:40:27.805Z,99552.47
2023-04-22T06:42:55.797Z,99548.06
2023-04-22T06:45:25.303Z,99551.84
2023-04-22T06:47:54.192Z,99551.03
2023-04-22T06:50:22.630Z,99556.72
2023-04-22T06:52:50.492Z,99552.31
2023-04-22T06:55:18.375Z,99560.47
2023-04-22T06:57:45.786Z,99556.06
2023-04-22T07:00:13.609Z,99552.50
2023-04-22T07:02:41.970Z,99553.56
2023-04-22T07:05:09.671Z,99557.13
2023-04-22T07:07:37.585Z,99557.13
2023-04-22T07:10:06.223Z,99552.75
2023-04-22T07:12:33.904Z,99553.00
2023-04-22T07:15:01.264Z,99551.91
2023-04-22T07:17:28.997Z,99558.19
2023-04-22T07:19:56.456Z,99560.09
2023-04-22T07:22:23.884Z,99559.84
2023-04-22T07:24:51.583Z,99549.19
2023-04-22T07:27:18.982Z,99560.91
2023-04-22T07:29:46.388Z,99560.91
2023-04-22T07:32:14.100Z,99558.19
2023-04-22T07:34:41.520Z,99560.91
2023-04-22T07:37:09.602Z,99560.09
2023-04-22T07:39:37.558Z,99553.56
2023-04-22T07:42:05.581Z,99557.13
2023-04-22T07:44:33.013Z,99554.41
2023-04-22T07:47:00.657Z,99565.28
2023-04-22T07:49:28.070Z,99557.94
2023-04-22T07:51:56.677Z,99555.47
2023-04-22T07:54:24.494Z,99557.13
2023-04-22T07:56:51.902Z,99559.84
2023-04-22T07:59:19.405Z,99560.66
2023-04-22T08:01:47.085Z,99558.78
2023-04-22T08:04:15.288Z,99560.66
2023-04-22T08:06:42.938Z,99557.94
2023-04-22T08:09:10.596Z,99559.63
2023-04-22T08:11:38.296Z,99556.91
2023-04-22T08:14:05.686Z,99558.59
2023-04-22T08:16:33.063Z,99556.91
2023-04-22T08:19:00.770Z,99563.19
2023-04-22T08:21:28.483Z,99564.88
2023-04-22T08:23:56.087Z,99563.19
2023-04-22T08:26:23.779Z,99556.91
2023-04-22T08:28:51.268Z,99564.03
2023-04-22T08:31:18.780Z,99562.34
2023-04-22T08:33:46.553Z,99570.31
2023-04-22T08:36:14.029Z,99561.91
2023-04-22T08:38:41.417Z,99563.81
2023-04-22T08:41:09.083Z,99560.25
2023-04-22T10:30:40.440Z,99509.22
2023-04-22T10:33:20.912Z,99506.50
2023-04-22T10:36:10.667Z,99509.81
2023-04-22T10:38:39.583Z,99500.41
2023-04-22T10:41:07.149Z,99501.47
2023-04-22T10:44:00.915Z,99498.75
2023-04-22T10:46:39.773Z,99498.50
2023-04-22T10:49:11.339Z,99493.91
2023-04-22T10:51:46.524Z,99496.63
2023-04-22T10:54:31.781Z,99498.28
2023-04-22T10:57:03.691Z,99494.28
2023-04-22T10:59:32.070Z,99496.16
2023-04-22T11:02:06.616Z,99498.87
2023-04-22T11:04:35.586Z,99495.94
2023-04-22T11:07:17.128Z,99501.12
2023-04-22T11:09:45.638Z,99493.34
2023-04-22T11:12:35.319Z,99494.41
2023-04-22T11:15:15.419Z,99502.31
2023-04-22T11:17:44.512Z,99497.13
2023-04-22T11:20:12.897Z,99491.94
2023-04-22T11:22:42.367Z,99487.53
2023-04-22T11:25:10.418Z,99499.03
2023-04-22T11:27:38.343Z,99497.13
2023-04-22T11:30:07.678Z,99497.72
2023-04-22T11:32:36.203Z,99493.09
2023-04-22T11:35:08.328Z,99500.22
2023-04-22T11:37:42.141Z,99493.97
2023-04-22T11:40:28.951Z,99484.47
2023-04-22T11:42:58.195Z,99501.06
2023-04-22T11:45:26.398Z,99495.38
2023-04-22T11:47:54.016Z,99491.56
2023-04-22T11:50:23.028Z,99487.19
2023-04-22T11:53:04.291Z,99485.31
2023-04-22T11:55:35.920Z,99484.47
2023-04-22T11:58:10.313Z,99485.56
2023-04-22T12:00:44.085Z,99479.50
2023-04-22T12:03:15.845Z,99471.94
2023-04-22T12:05:47.104Z,99477.38
2023-04-22T12:08:16.331Z,99473.84
2023-04-22T12:10:45.482Z,99486.62
2023-04-22T12:13:23.338Z,99473.84
2023-04-22T12:15:56.936Z,99475.50
2023-04-22T12:18:34.244Z,99477.38
2023-04-22T12:21:12.717Z,99477.16
2023-04-22T12:24:06.966Z,99474.66
2023-04-22T12:26:34.660Z,99476.56
2023-04-22T12:29:02.094Z,99471.94
2023-04-22T12:31:29.583Z,99473.84
2023-04-22T12:33:57.356Z,99471.94
2023-04-22T12:36:25.291Z,99467.56
2023-04-22T12:38:52.872Z,99468.59
2023-04-22T12:41:20.581Z,99470.28
2023-04-22T12:43:48.276Z,99456.69
2023-04-22T12:46:15.779Z,99463.16
2023-04-22T12:48:43.457Z,99462.13
2023-04-22T12:51:10.925Z,99456.69
2023-04-22T12:53:38.322Z,99457.72
2023-04-22T12:56:06.006Z,99454.19
2023-04-22T12:58:33.427Z,99453.13
2023-04-22T13:01:00.850Z,99453.97
2023-04-22T13:03:28.769Z,99448.53
2023-04-22T13:05:56.417Z,99445.56
2023-04-22T13:08:23.860Z,99437.16
2023-04-22T13:10:51.838Z,99429.00
2023-04-22T13:13:19.633Z,99428.16
2023-04-22T13:15:53.542Z,99436.94
2023-04-22T13:18:22.892Z,99432.31
2023-04-22T13:20:51.206Z,99447.81
2023-04-22T13:23:21.768Z,99440.50
2023-04-22T13:25:50.295Z,99430.66
2023-04-22T13:28:17.740Z,99417.88
2023-04-22T13:30:45.209Z,99429.34
2023-04-22T13:33:12.889Z,99424.75
2023-04-22T13:35:40.506Z,99421.44
2023-04-22T13:38:07.986Z,99424.53
2023-04-22T13:40:35.967Z,99416.81
2023-04-22T13:43:03.449Z,99413.03
2023-04-22T13:45:30.958Z,99416.81
2023-04-22T13:47:58.713Z,99411.38
2023-04-22T13:50:26.178Z,99420.63
2023-04-22T13:52:53.569Z,99416.00
2023-04-22T13:55:21.385Z,99408.03
2023-04-22T13:57:50.898Z,99408.03
2023-04-22T14:00:18.736Z,99401.56
2023-04-22T14:02:46.747Z,99401.56
2023-04-22T14:05:14.280Z,99403.47
2023-04-22T14:07:41.708Z,99397.41
2023-04-22T14:10:12.093Z,99400.13
2023-04-22T14:12:39.498Z,99408.03
2023-04-22T14:15:10.747Z,99398.72
2023-04-22T14:17:41.486Z,99406.19
2023-04-22T14:20:09.764Z,99401.19
2023-04-22T14:22:37.252Z,99399.31
2023-04-22T14:25:05.488Z,99401.19
2023-04-22T14:27:33.065Z,99403.09
2023-04-22T14:30:01.453Z,99403.91
2023-04-22T14:32:29.378Z,99406.37
2023-04-22T14:34:56.855Z,99395.75
2023-04-22T14:37:24.265Z,99394.69
2023-04-22T14:39:52.070Z,99391.97
2023-04-22T14:42:19.626Z,99387.59
2023-04-22T14:44:47.001Z,99390.06
2023-04-22T14:47:14.755Z,99385.69
2023-04-22T14:49:43.605Z,99388.41
2023-04-22T14:52:11.080Z,99386.75
2023-04-22T14:54:38.796Z,99386.53
2023-04-22T14:57:06.198Z,99386.53
2023-04-22T14:59:33.610Z,99384.63
2023-04-22T15:02:01.560Z,99385.94
2023-04-22T15:04:29.190Z,99382.97
2023-04-22T15:06:57.760Z,99380.25
2023-04-22T15:09:25.753Z,99382.97
2023-04-22T15:11:54.830Z,99384.03
2023-04-22T15:14:22.297Z,99372.34
2023-04-22T15:16:50.141Z,99378.59
2023-04-22T15:19:17.576Z,99378.81
2023-04-22T15:21:45.012Z,99377.16
2023-04-22T15:24:12.883Z,99380.94
2023-04-22T15:26:40.731Z,99386.41
2023-04-22T15:29:08.183Z,99383.91
2023-04-22T15:31:36.036Z,99383.91
2023-04-22T15:34:03.457Z,99384.13
2023-04-22T15:36:31.574Z,99379.75
2023-04-22T15:38:59.397Z,99383.31
2023-04-22T15:41:27.021Z,99380.00
2023-04-22T15:43:54.467Z,99377.28
2023-04-22T15:46:22.287Z,99378.34
2023-04-22T15:48:49.814Z,99373.72
2023-04-22T15:51:17.985Z,99386.25
2023-04-22T15:53:46.065Z,99383.78
2023-04-22T15:56:13.896Z,99386.50
2023-04-22T15:58:41.386Z,99380.22
2023-04-22T16:01:18.925Z,99383.78
2023-04-22T16:03:48.378Z,99380.22
2023-04-22T16:06:19.930Z,99381.06
2023-04-22T16:08:47.593Z,99378.34
2023-04-22T16:11:15.271Z,99375.84
2023-04-22T16:13:42.813Z,99375.00
2023-04-22T16:16:11.093Z,99372.28
2023-04-22T16:18:38.633Z,99378.56
2023-04-22T16:21:06.030Z,99371.47
2023-04-22T16:23:34.603Z,99373.38
2023-04-22T16:26:04.441Z,99373.12
2023-04-22T16:28:32.005Z,99368.75
2023-04-22T16:31:00.504Z,99375.63
2023-04-22T16:33:28.031Z,99370.41
2023-04-22T16:35:55.555Z,99367.69
2023-04-22T16:38:23.273Z,99375.00
2023-04-22T16:40:54.065Z,99363.31
2023-04-22T16:43:21.540Z,99366.84
2023-04-22T16:45:49.303Z,99367.09
2023-04-22T16:48:16.921Z,99360.59
2023-04-22T16:50:44.363Z,99369.81
2023-04-22T16:53:12.032Z,99363.56
2023-04-22T16:55:39.486Z,99368.75
2023-04-22T16:58:06.962Z,99365.19
2023-04-22T17:00:34.617Z,99364.38
2023-04-22T17:03:02.332Z,99361.88
2023-04-22T17:05:30.212Z,99368.16
2023-04-22T17:07:57.920Z,99368.16
2023-04-22T17:10:25.484Z,99368.16
2023-04-22T17:12:53.421Z,99369.19
2023-04-22T17:15:21.274Z,99367.31
2023-04-22T17:17:48.675Z,99369.19
2023-04-22T17:20:16.280Z,99366.47
2023-04-22T17:22:43.930Z,99364.81
2023-04-22T17:25:11.535Z,99366.47
2023-04-22T17:27:39.033Z,99360.19
2023-04-22T17:30:07.557Z,99372.97
2023-04-22T17:32:35.013Z,99366.69
2023-04-22T17:35:02.840Z,99375.69
2023-04-22T17:37:30.646Z,99372.12
2023-04-22T17:39:58.066Z,99370.47
2023-04-22T17:42:35.399Z,99374.03
2023-04-22T17:45:11.152Z,99375.09
2023-04-22T17:47:38.649Z,99378.66
2023-04-22T17:50:06.805Z,99379.47
2023-04-22T17:52:35.175Z,99377.00
2023-04-22T17:55:03.134Z,99384.91
2023-04-22T17:57:31.215Z,99384.31
2023-04-22T17:59:58.982Z,99382.44
2023-04-22T18:02:26.442Z,99388.69
2023-04-22T18:04:54.203Z,99388.69
2023-04-22T18:07:22.703Z,99395.22
2023-04-22T18:09:50.737Z,99400.66
2023-04-22T18:12:18.807Z,99406.09
2023-04-22T18:14:46.345Z,99412.34
2023-04-22T18:17:13.968Z,99411.53
2023-04-22T18:19:42.006Z,99409.03
2023-04-22T18:22:09.594Z,99411.75
2023-04-22T18:24:36.999Z,99410.91
2023-04-22T18:27:04.781Z,99422.63
2023-04-22T18:29:32.185Z,99422.63
2023-04-22T18:31:59.770Z,99417.44
2023-04-22T18:34:29.082Z,99420.16
2023-04-22T18:36:56.790Z,99424.53
2023-04-22T18:39:24.336Z,99422.88
2023-04-22T18:41:52.177Z,99422.88
2023-04-22T18:44:20.138Z,99432.91
2023-04-22T18:46:47.643Z,99426.41
2023-04-22T18:49:15.396Z,99428.31
2023-04-22T18:51:42.950Z,99422.88
2023-04-22T18:54:10.763Z,99429.37
2023-04-22T18:56:38.797Z,99429.37
2023-04-22T18:59:06.281Z,99427.69
2023-04-22T19:01:35.103Z,99430.41
2023-04-22T19:04:04.083Z,99435.84
2023-04-22T19:06:32.316Z,99440.25
2023-04-22T19:09:00.331Z,99439.63
2023-04-22T19:11:28.063Z,99436.91
2023-04-22T19:13:55.654Z,99439.44
2023-04-22T19:16:25.629Z,99436.91
2023-04-22T19:18:54.050Z,99438.56
2023-04-22T19:21:22.000Z,99440.47
2023-04-22T19:23:53.087Z,99443.19
2023-04-22T19:26:22.159Z,99442.34
2023-04-22T19:28:49.975Z,99442.34
2023-04-22T19:31:17.704Z,99445.06
2023-04-22T19:33:45.489Z,99436.91
2023-04-22T19:36:13.056Z,99436.91
2023-04-22T19:38:41.658Z,99439.63
2023-04-22T19:41:11.555Z,99432.09
2023-04-22T19:43:40.827Z,99436.47
2023-04-22T19:46:09.144Z,99438.72
2023-04-22T19:48:37.462Z,99437.66
2023-04-22T19:51:05.956Z,99440.16
2023-04-22T19:53:33.735Z,99442.03
2023-04-22T19:56:02.370Z,99440.75
2023-04-22T19:58:30.810Z,99440.56
2023-04-22T20:00:59.726Z,99443.84
2023-04-22T20:03:27.998Z,99443.28
2023-04-22T20:05:55.596Z,99442.78
2023-04-22T20:08:26.139Z,99445.28
2023-04-22T20:10:55.380Z,99440.94
2023-04-22T20:13:23.315Z,99442.34
2023-04-22T20:15:51.332Z,99437.72
2023-04-22T20:18:19.757Z,99440.44
2023-04-22T20:20:48.299Z,99434.78
2023-04-22T20:23:16.834Z,99441.88
2023-04-22T20:25:45.226Z,99438.91
2023-04-22T20:28:12.854Z,99444.13
2023-04-22T20:30:40.817Z,99442.25
2023-04-22T20:33:12.094Z,99447.69
2023-04-22T20:35:40.327Z,99444.13
2023-04-22T20:38:08.912Z,99443.28
2023-04-22T20:40:36.339Z,99444.13
2023-04-22T20:43:03.757Z,99443.06
2023-04-22T20:45:32.107Z,99441.88
2023-04-22T20:47:59.678Z,99432.06
2023-04-22T20:50:33.005Z,99435.81
2023-04-22T20:53:01.195Z,99436.66
2023-04-22T20:55:28.990Z,99439.63
2023-04-22T20:57:56.522Z,99444.22
2023-04-22T21:00:24.250Z,99437.72
2023-04-22T21:02:51.906Z,99441.50
2023-04-22T21:05:19.824Z,99443.41
2023-04-22T21:07:47.595Z,99444.22
2023-04-22T21:10:15.291Z,99448.03
2023-04-22T21:12:43.255Z,99441.75
2023-04-22T21:15:11.365Z,99443.66
2023-04-22T21:17:41.021Z,99439.84
2023-04-22T21:20:11.461Z,99435.47
2023-04-22T21:22:39.116Z,99436.91
2023-04-22T21:25:07.107Z,99433.34
2023-04-22T21:27:34.838Z,99432.75
2023-04-22T21:30:02.722Z,99430.03
2023-04-22T21:32:30.225Z,99425.44
2023-04-22T21:34:57.601Z,99430.03
2023-04-22T21:37:25.281Z,99431.69
2023-04-22T21:39:52.662Z,99430.03
2023-04-22T21:42:20.649Z,99435.47
2023-04-22T21:44:49.893Z,99437.34
2023-04-22T21:47:17.372Z,99441.97
2023-04-22T21:49:46.779Z,99440.06
2023-04-22T21:52:14.722Z,99436.53
2023-04-22T21:54:44.923Z,99440.06
2023-04-22T21:57:12.580Z,99441.12
2023-04-22T21:59:40.877Z,99441.12
2023-04-22T22:02:08.757Z,99437.59
2023-04-22T22:04:36.539Z,99440.06
2023-04-22T22:07:04.086Z,99440.31
2023-04-22T22:09:32.012Z,99443.03
2023-04-22T22:11:59.892Z,99437.59
2023-04-22T22:14:27.552Z,99446.56
2023-04-22T22:16:55.355Z,99448.47
2023-04-22T22:19:27.631Z,99453.09
2023-04-22T22:21:55.335Z,99440.31
2023-04-22T22:24:23.171Z,99444.94
2023-04-22T22:26:50.810Z,99447.66
2023-04-22T22:29:18.497Z,99444.94
2023-04-22T22:31:47.368Z,99439.47
2023-04-22T22:34:14.804Z,99452.25
2023-04-22T22:36:42.663Z,99448.47
2023-04-22T22:39:11.969Z,99453.09
2023-04-22T22:41:41.661Z,99450.38
2023-04-22T22:44:10.887Z,99454.16
2023-04-22T22:46:40.296Z,99457.69
2023-04-22T22:49:07.951Z,99456.88
2023-04-22T22:51:37.507Z,99450.13
2023-04-22T22:54:05.294Z,99453.91
2023-04-22T22:56:32.767Z,99446.56
2023-04-22T22:59:00.636Z,99453.91
2023-04-22T23:01:28.086Z,99454.97
2023-04-22T23:03:55.812Z,99453.91
2023-04-22T23:06:23.710Z,99457.69
2023-04-22T23:08:51.151Z,99462.91
2023-04-22T23:11:18.688Z,99449.28
2023-04-22T23:13:46.539Z,99455.56
2023-04-22T23:16:13.953Z,99455.56
2023-04-22T23:18:41.367Z,99455.34
2023-04-22T23:21:09.276Z,99458.91
2023-04-22T23:23:37.003Z,99458.91
2023-04-22T23:26:04.655Z,99460.78
2023-04-22T23:28:32.690Z,99456.38
2023-04-22T23:31:00.140Z,99450.94
2023-04-22T23:33:27.599Z,99456.38
2023-04-22T23:35:56.658Z,99451.19
2023-04-22T23:38:24.135Z,99449.53
2023-04-22T23:40:51.588Z,99452.25
2023-04-22T23:43:19.232Z,99459.59
2023-04-22T23:45:46.651Z,99461.25
2023-04-22T23:48:14.257Z,99458.78
2023-04-22T23:50:41.979Z,99450.59
2023-04-22T23:53:09.429Z,99463.16
2023-04-22T23:55:37.162Z,99458.78
2023-04-22T23:58:04.901Z,99456.06
